Rock Stream, New York
Current Conditions -  °F | °C
As of 5:53 AM on Wednesday 26 Nov 2014 (Local Time) from KPEO Reporting Station
Overcast Overcast  
Wind Chill: 30°   Ceiling: 3400
Heat Index: 34°   Visibility: 10mi
Dew Point: 23°   Wind: 5mph
Humidity: 64%   Direction: 330°NNW
Pressure: 30.2"   Gusts: NA
Location:  42.47°N, 76.93°W
Report Text: KPEO 261053Z AUTO 33004KT 10SM OVC034 01/M05 A3020 RMK AO2 SLP235 T00111050
Loading
Personal Weather Stations






























Interactive Weather Map New forecast layout! Learn more

10-Day Weather Forecast

Advertisements
Track Severe Weather on mobile